Time;durP1;ratioP1;P1;durP2;ratioP2;P2;SDS_P1;SDS_P2;PMS_P1;PMS_P2;Temp;Humidity;BMP_temperature;BMP_pressure;BME280_temperature;BME280_humidity;BME280_pressure;Samples;Min_cycle;Max_cycle;Signal;HPM_P1;HPM_P2
2022/12/06 00:01:32;;;;;;;10.43;7.93;;;5.50;99.90;;;;;;4978469;28;20201;-78
2022/12/06 00:04:01;;;;;;;7.82;6.85;;;5.50;99.90;;;;;;4947090;28;20602;-78
2022/12/06 00:06:29;;;;;;;8.73;7.45;;;5.50;99.90;;;;;;4996024;28;20222;-78
2022/12/06 00:09:01;;;;;;;9.02;7.40;;;5.50;99.90;;;;;;4978812;28;20198;-78
2022/12/06 00:11:32;;;;;;;7.95;7.15;;;5.50;99.90;;;;;;4978369;28;20196;-78
2022/12/06 00:14:03;;;;;;;10.30;8.45;;;5.40;99.90;;;;;;4978718;28;20184;-78
2022/12/06 00:16:35;;;;;;;9.18;7.35;;;5.50;99.90;;;;;;4962028;28;20305;-78
2022/12/06 00:19:01;;;;;;;10.77;8.30;;;5.50;99.90;;;;;;4962830;28;20176;-78
2022/12/06 00:21:35;;;;;;;11.40;8.45;;;5.50;99.90;;;;;;4978252;28;20246;-78
2022/12/06 00:24:07;;;;;;;11.75;7.80;;;5.50;99.90;;;;;;4978243;28;20182;-77
2022/12/06 00:26:38;;;;;;;9.93;8.60;;;5.50;99.90;;;;;;4962114;28;20678;-78
2022/12/06 00:29:05;;;;;;;8.65;7.75;;;5.50;99.90;;;;;;4962594;28;20587;-77
2022/12/06 00:31:33;;;;;;;8.75;7.60;;;5.50;99.90;;;;;;4962428;28;20715;-78
2022/12/06 00:34:02;;;;;;;10.13;8.23;;;5.40;99.90;;;;;;4962553;28;20275;-78
2022/12/06 00:36:41;;;;;;;10.02;8.50;;;5.50;99.90;;;;;;4960670;28;20301;-78
2022/12/06 00:39:11;;;;;;;9.57;7.22;;;5.50;99.90;;;;;;4977228;28;20187;-78
2022/12/06 00:41:38;;;;;;;12.00;8.68;;;5.40;99.90;;;;;;4978123;28;20206;-78
2022/12/06 00:44:07;;;;;;;9.15;7.40;;;5.50;99.90;;;;;;4978368;28;20168;-78
2022/12/06 00:46:34;;;;;;;11.52;8.43;;;5.50;99.90;;;;;;4958273;28;20263;-77
2022/12/06 00:49:04;;;;;;;10.77;8.50;;;5.50;99.90;;;;;;4962323;28;20185;-78
2022/12/06 00:51:33;;;;;;;10.32;7.97;;;5.50;99.90;;;;;;4961989;28;20206;-78
2022/12/06 00:53:59;;;;;;;10.13;8.07;;;5.50;99.90;;;;;;4945823;28;20667;-79
2022/12/06 00:56:28;;;;;;;10.93;8.35;;;5.50;99.90;;;;;;4978141;28;20183;-78
2022/12/06 00:58:54;;;;;;;9.95;8.10;;;5.50;99.90;;;;;;4963944;28;20215;-78
2022/12/06 01:01:23;;;;;;;10.43;8.10;;;5.50;99.90;;;;;;4965251;28;20300;-78
2022/12/06 01:03:54;;;;;;;11.52;8.45;;;5.50;99.90;;;;;;4981298;28;20372;-78
2022/12/06 01:06:26;;;;;;;12.68;8.75;;;5.50;99.90;;;;;;4999084;28;20172;-78
2022/12/06 01:08:57;;;;;;;10.32;8.25;;;5.50;99.90;;;;;;4966056;28;20182;-77
2022/12/06 01:11:24;;;;;;;10.25;8.50;;;5.50;99.90;;;;;;4981841;28;20195;-78
2022/12/06 01:13:51;;;;;;;10.40;8.15;;;5.50;99.90;;;;;;4997487;28;20170;-78
2022/12/06 01:16:22;;;;;;;9.85;7.78;;;5.50;99.90;;;;;;4980475;28;20248;-78
2022/12/06 01:18:53;;;;;;;12.07;8.70;;;5.50;99.90;;;;;;4981121;28;20664;-78
2022/12/06 01:21:22;;;;;;;11.13;7.82;;;5.50;99.90;;;;;;4979960;28;20206;-78
2022/12/06 01:23:48;;;;;;;9.65;8.60;;;5.40;99.90;;;;;;4976510;28;20210;-78
2022/12/06 01:26:22;;;;;;;10.30;8.10;;;5.40;99.90;;;;;;4948948;28;20232;-78
2022/12/06 01:28:49;;;;;;;10.90;8.50;;;5.40;99.90;;;;;;4998016;28;20207;-78
2022/12/06 01:31:15;;;;;;;12.27;9.25;;;5.50;99.90;;;;;;4980937;28;20198;-79
2022/12/06 01:33:42;;;;;;;11.82;8.35;;;5.50;99.90;;;;;;4981198;28;20689;-78
2022/12/06 01:36:32;;;;;;;10.02;8.13;;;5.40;99.90;;;;;;5456748;23;20243;-79
2022/12/06 01:38:59;;;;;;;11.35;7.68;;;5.40;99.90;;;;;;4979205;28;20186;-79
2022/12/06 01:41:26;;;;;;;10.68;8.30;;;5.40;99.90;;;;;;4999833;28;20193;-79
2022/12/06 01:43:55;;;;;;;12.80;8.65;;;5.40;99.90;;;;;;5017737;28;20178;-79
2022/12/06 01:46:38;;;;;;;11.18;8.27;;;5.40;99.90;;;;;;4981707;28;20178;-79
2022/12/06 01:49:15;;;;;;;11.60;8.50;;;5.40;99.90;;;;;;4980508;28;20163;-79
2022/12/06 01:52:12;;;;;;;12.23;8.05;;;5.40;99.90;;;;;;4965671;28;20305;-79
2022/12/06 01:54:39;;;;;;;11.77;9.32;;;5.40;99.90;;;;;;4998474;28;20722;-79
2022/12/06 01:57:08;;;;;;;11.45;8.35;;;5.40;99.90;;;;;;4973456;28;20272;-79
2022/12/06 01:59:35;;;;;;;12.75;8.88;;;5.40;99.90;;;;;;4965310;28;20236;-79
2022/12/06 02:02:01;;;;;;;10.48;7.70;;;5.40;99.90;;;;;;4965479;28;20581;-79
2022/12/06 02:04:29;;;;;;;13.65;8.52;;;5.40;99.90;;;;;;4998622;28;20153;-79
2022/12/06 02:06:59;;;;;;;12.98;9.35;;;5.40;99.90;;;;;;4965369;28;20317;-78
2022/12/06 02:09:27;;;;;;;10.55;8.20;;;5.40;99.90;;;;;;4952896;28;20189;-79
2022/12/06 02:11:54;;;;;;;13.68;8.77;;;5.40;99.90;;;;;;4967776;28;20219;-79
2022/12/06 02:14:29;;;;;;;10.65;8.40;;;5.40;99.90;;;;;;4980999;28;20188;-79
2022/12/06 02:17:20;;;;;;;11.18;8.90;;;5.40;99.90;;;;;;4981770;28;20227;-79
2022/12/06 02:20:04;;;;;;;10.10;7.30;;;5.40;99.90;;;;;;4965675;28;20267;-79
2022/12/06 02:22:48;;;;;;;12.95;8.63;;;5.40;99.90;;;;;;4968046;28;20201;-79
2022/12/06 02:25:58;;;;;;;18.42;9.23;;;5.40;99.90;;;;;;5000670;28;20224;-79
2022/12/06 02:28:43;;;;;;;13.27;9.13;;;5.40;99.90;;;;;;4990065;28;20183;-79
2022/12/06 02:31:49;;;;;;;12.05;8.60;;;5.40;99.90;;;;;;4982742;28;20748;-79
2022/12/06 02:34:27;;;;;;;11.45;9.20;;;5.40;99.90;;;;;;4951681;28;20205;-79
2022/12/06 02:37:01;;;;;;;12.95;9.30;;;5.40;99.90;;;;;;4978666;28;20210;-79
2022/12/06 02:39:35;;;;;;;13.45;8.82;;;5.40;99.90;;;;;;5013176;28;20190;-79
2022/12/06 02:42:09;;;;;;;10.75;8.13;;;5.40;99.90;;;;;;4980659;28;20203;-79
2022/12/06 02:44:43;;;;;;;11.50;8.20;;;5.40;99.90;;;;;;4985153;28;20199;-79
2022/12/06 02:47:13;;;;;;;12.27;9.07;;;5.40;99.90;;;;;;4983867;28;20244;-79
2022/12/06 02:49:48;;;;;;;9.27;7.53;;;5.40;99.90;;;;;;4967383;28;20522;-79
2022/12/06 02:52:16;;;;;;;13.32;9.18;;;5.40;99.90;;;;;;4982827;28;20282;-79
2022/12/06 02:54:44;;;;;;;10.77;7.80;;;5.40;99.90;;;;;;4980299;28;20271;-79
2022/12/06 02:57:10;;;;;;;12.93;10.02;;;5.40;99.90;;;;;;4964486;28;20429;-79
2022/12/06 02:59:48;;;;;;;12.07;9.00;;;5.40;99.90;;;;;;4983569;28;20642;-79
2022/12/06 03:02:15;;;;;;;14.10;9.45;;;5.40;99.90;;;;;;4999846;28;20441;-79
2022/12/06 03:05:00;;;;;;;11.80;8.43;;;5.40;99.90;;;;;;4998220;28;20635;-79
2022/12/06 03:07:48;;;;;;;15.48;9.63;;;5.40;99.90;;;;;;4980861;28;20174;-79
2022/12/06 03:10:54;;;;;;;12.50;8.25;;;5.40;99.90;;;;;;4977537;28;20820;-79
2022/12/06 03:13:48;;;;;;;12.13;9.25;;;5.40;99.90;;;;;;4949228;28;20198;-79
2022/12/06 03:16:37;;;;;;;12.00;8.88;;;5.40;99.90;;;;;;5013112;28;20519;-79
2022/12/06 03:19:24;;;;;;;12.07;9.23;;;5.40;99.90;;;;;;4983318;28;20200;-79
2022/12/06 03:22:29;;;;;;;14.88;8.80;;;5.40;99.90;;;;;;4960051;28;20202;-78
2022/12/06 03:25:04;;;;;;;11.93;8.02;;;5.40;99.90;;;;;;4998361;28;20202;-79
2022/12/06 03:27:37;;;;;;;14.13;8.50;;;5.40;99.90;;;;;;4999437;28;20650;-78
2022/12/06 03:30:12;;;;;;;12.98;9.10;;;5.40;99.90;;;;;;4986884;28;20179;-78
2022/12/06 03:32:42;;;;;;;13.13;9.30;;;5.40;99.90;;;;;;4980665;28;20160;-79
2022/12/06 03:35:13;;;;;;;13.55;8.95;;;5.40;99.90;;;;;;4956953;28;20671;-78
2022/12/06 03:37:45;;;;;;;12.88;8.80;;;5.40;99.90;;;;;;4983205;28;20827;-78
2022/12/06 03:40:27;;;;;;;12.48;8.60;;;5.40;99.90;;;;;;4990004;28;20226;-77
2022/12/06 03:42:57;;;;;;;11.43;8.48;;;5.40;99.90;;;;;;4963484;28;20276;-78
2022/12/06 03:45:35;;;;;;;13.48;10.23;;;5.40;99.90;;;;;;4979822;28;20182;-78
2022/12/06 03:48:13;;;;;;;15.60;9.90;;;5.40;99.90;;;;;;4979556;28;20225;-78
2022/12/06 03:50:51;;;;;;;13.23;10.00;;;5.40;99.90;;;;;;4962862;28;20229;-79
2022/12/06 03:53:17;;;;;;;14.70;10.10;;;5.40;99.90;;;;;;4947478;28;20349;-78
2022/12/06 03:55:44;;;;;;;14.60;10.02;;;5.40;99.90;;;;;;4947673;28;20186;-78
2022/12/06 03:58:17;;;;;;;12.40;8.73;;;5.40;99.90;;;;;;4963522;28;20231;-79
2022/12/06 04:00:44;;;;;;;13.55;8.85;;;5.40;99.90;;;;;;4979452;28;20197;-78
2022/12/06 04:03:09;;;;;;;15.00;9.65;;;5.40;99.90;;;;;;4963949;28;20179;-78
2022/12/06 04:05:36;;;;;;;16.60;9.70;;;5.40;99.90;;;;;;4963040;28;20583;-79
2022/12/06 04:08:02;;;;;;;14.50;10.15;;;5.40;99.90;;;;;;4979630;28;20438;-78
2022/12/06 04:10:30;;;;;;;16.15;10.50;;;5.40;99.90;;;;;;4995778;28;20207;-78
2022/12/06 04:13:04;;;;;;;14.00;9.13;;;5.40;99.90;;;;;;4979350;28;20568;-78
2022/12/06 04:15:38;;;;;;;14.48;10.05;;;5.40;99.90;;;;;;4978873;28;20414;-79
2022/12/06 04:18:14;;;;;;;14.52;9.63;;;5.40;99.90;;;;;;5000357;28;20201;-79
2022/12/06 04:23:36;;;;;;;11.98;8.65;;;5.50;99.90;;;;;;4974172;28;20706;-79
2022/12/06 04:26:07;;;;;;;14.98;10.43;;;5.50;99.90;;;;;;4998452;28;20209;-78
2022/12/06 04:39:38;;;;;;;17.60;10.75;;;5.50;99.90;;;;;;4992535;28;20209;-79
2022/12/06 04:44:49;;;;;;;14.07;9.60;;;5.50;99.90;;;;;;4998360;28;20171;-79
2022/12/06 04:47:15;;;;;;;16.40;10.53;;;5.50;99.90;;;;;;4984101;28;20568;-78
2022/12/06 04:49:44;;;;;;;14.15;10.38;;;5.40;99.90;;;;;;4963304;28;20480;-79
2022/12/06 04:52:12;;;;;;;15.18;10.32;;;5.50;99.90;;;;;;4963727;28;20198;-79
2022/12/06 04:54:39;;;;;;;14.25;10.05;;;5.50;99.90;;;;;;4995937;28;20189;-79
2022/12/06 04:57:10;;;;;;;13.82;9.45;;;5.40;99.90;;;;;;4979166;28;20203;-79
2022/12/06 04:59:39;;;;;;;15.52;9.90;;;5.50;99.90;;;;;;4986785;28;20183;-78
2022/12/06 05:02:09;;;;;;;15.35;10.18;;;5.50;99.90;;;;;;4981691;28;20249;-79
2022/12/06 05:04:40;;;;;;;15.50;10.63;;;5.50;99.90;;;;;;4957396;28;20211;-78
2022/12/06 05:07:10;;;;;;;14.32;9.38;;;5.50;99.90;;;;;;4995704;28;20211;-78
2022/12/06 05:09:38;;;;;;;12.60;9.63;;;5.40;99.90;;;;;;4980271;28;20194;-78
2022/12/06 05:12:09;;;;;;;14.20;9.75;;;5.50;99.90;;;;;;4970477;28;20207;-78
2022/12/06 05:14:37;;;;;;;15.48;9.90;;;5.50;99.90;;;;;;4998838;28;20225;-79
2022/12/06 05:17:06;;;;;;;15.55;10.23;;;5.50;99.90;;;;;;4986674;28;20210;-77
2022/12/06 05:19:32;;;;;;;13.50;9.60;;;5.50;99.90;;;;;;4976998;28;20574;-78
2022/12/06 05:21:58;;;;;;;14.10;9.00;;;5.50;99.90;;;;;;4943856;28;20552;-78
2022/12/06 05:24:24;;;;;;;14.05;9.73;;;5.50;99.90;;;;;;4985966;28;20174;-78
2022/12/06 05:26:50;;;;;;;15.90;9.10;;;5.50;99.90;;;;;;4964608;28;20182;-78
2022/12/06 05:29:16;;;;;;;16.20;9.20;;;5.50;99.90;;;;;;4985012;28;20171;-78
2022/12/06 05:31:44;;;;;;;16.23;10.75;;;5.50;99.90;;;;;;4977544;28;20438;-78
2022/12/06 05:34:15;;;;;;;19.23;10.52;;;5.50;99.90;;;;;;4980634;28;20597;-78
2022/12/06 05:36:44;;;;;;;16.55;9.85;;;5.50;99.90;;;;;;4973330;28;20210;-78
2022/12/06 05:39:10;;;;;;;16.67;10.25;;;5.50;99.90;;;;;;4977469;28;20182;-77
2022/12/06 05:41:36;;;;;;;15.68;9.93;;;5.50;99.90;;;;;;4960918;28;20751;-78
2022/12/06 05:44:02;;;;;;;13.90;9.65;;;5.50;99.90;;;;;;4964558;28;20696;-78
2022/12/06 05:46:28;;;;;;;15.88;9.60;;;5.50;99.90;;;;;;4961052;28;20195;-78
2022/12/06 05:48:54;;;;;;;14.27;9.43;;;5.50;99.90;;;;;;4977922;28;20195;-78
2022/12/06 05:51:20;;;;;;;14.60;9.37;;;5.50;99.90;;;;;;4961840;28;20496;-78
2022/12/06 05:53:48;;;;;;;19.88;10.50;;;5.50;99.90;;;;;;4993140;28;20444;-78
2022/12/06 05:56:14;;;;;;;15.33;10.23;;;5.50;99.90;;;;;;4996172;28;20172;-77
2022/12/06 05:58:40;;;;;;;14.00;9.60;;;5.50;99.90;;;;;;4998061;28;20972;-74
2022/12/06 06:01:07;;;;;;;15.70;10.70;;;5.50;99.90;;;;;;4997552;28;21168;-74
2022/12/06 06:03:37;;;;;;;15.35;10.07;;;5.50;99.90;;;;;;5016040;28;20183;-78
2022/12/06 06:06:06;;;;;;;15.07;9.80;;;5.50;99.90;;;;;;5000120;28;20172;-79
2022/12/06 06:08:36;;;;;;;15.23;10.13;;;5.50;99.90;;;;;;4998061;28;20213;-78
2022/12/06 06:11:02;;;;;;;16.60;10.07;;;5.50;99.90;;;;;;4981194;28;20217;-78
2022/12/06 06:13:28;;;;;;;17.05;10.10;;;5.50;99.90;;;;;;4965705;28;20196;-78
2022/12/06 06:15:56;;;;;;;16.47;9.97;;;5.50;99.90;;;;;;4958200;28;20807;-78
2022/12/06 06:18:24;;;;;;;14.57;9.73;;;5.50;99.90;;;;;;4990539;28;20508;-78
2022/12/06 06:20:53;;;;;;;18.27;10.50;;;5.50;99.90;;;;;;4994050;28;20207;-78
2022/12/06 06:23:23;;;;;;;15.10;10.35;;;5.50;99.90;;;;;;4961710;28;20417;-74
2022/12/06 06:25:49;;;;;;;16.52;10.18;;;5.50;99.90;;;;;;4978395;28;20178;-74
2022/12/06 06:28:16;;;;;;;15.88;10.38;;;5.50;99.90;;;;;;4960493;28;20234;-74
2022/12/06 06:30:47;;;;;;;16.40;10.77;;;5.50;99.90;;;;;;4980694;28;20205;-76
2022/12/06 06:33:17;;;;;;;14.57;10.10;;;5.50;99.90;;;;;;4996557;28;20183;-74
2022/12/06 06:35:44;;;;;;;14.55;9.30;;;5.50;99.90;;;;;;4963841;28;21136;-74
2022/12/06 06:38:10;;;;;;;17.10;11.20;;;5.50;99.90;;;;;;4961060;28;20198;-74
2022/12/06 06:40:36;;;;;;;15.57;10.43;;;5.50;99.90;;;;;;4961447;28;20297;-75
2022/12/06 06:43:18;;;;;;;18.10;10.10;;;5.50;99.90;;;;;;4977557;28;20411;-75
2022/12/06 06:45:59;;;;;;;16.65;10.35;;;5.50;99.90;;;;;;4988800;28;20211;-73
2022/12/06 06:48:30;;;;;;;13.95;10.43;;;5.50;99.90;;;;;;4965632;28;20187;-74
2022/12/06 06:51:07;;;;;;;14.93;10.45;;;5.50;99.90;;;;;;4944786;28;20293;-74
2022/12/06 06:53:36;;;;;;;14.07;9.23;;;5.50;99.90;;;;;;4969766;28;20207;-74
2022/12/06 06:56:03;;;;;;;17.35;10.75;;;5.50;99.90;;;;;;4993563;28;20171;-74
2022/12/06 06:58:29;;;;;;;17.40;10.90;;;5.50;99.90;;;;;;4960562;28;20206;-76
2022/12/06 07:01:02;;;;;;;15.60;11.20;;;5.50;99.90;;;;;;4976285;28;20203;-76
2022/12/06 07:03:28;;;;;;;17.48;10.32;;;5.50;99.90;;;;;;4944384;28;20688;-76
2022/12/06 07:06:10;;;;;;;14.40;9.40;;;5.50;99.90;;;;;;4945643;28;20182;-76
2022/12/06 07:08:40;;;;;;;16.92;10.48;;;5.50;99.90;;;;;;4960209;28;20178;-76
2022/12/06 07:11:09;;;;;;;20.92;10.70;;;5.50;99.90;;;;;;4975272;28;20282;-76
2022/12/06 07:13:36;;;;;;;15.82;9.48;;;5.60;99.90;;;;;;4976168;28;20179;-76
2022/12/06 07:16:07;;;;;;;14.65;10.13;;;5.50;99.90;;;;;;4975943;28;20192;-76
2022/12/06 07:18:33;;;;;;;17.90;10.45;;;5.60;99.90;;;;;;4959856;28;20241;-76
2022/12/06 07:21:05;;;;;;;15.82;10.23;;;5.60;99.90;;;;;;4993157;28;20190;-76
2022/12/06 07:23:35;;;;;;;14.98;9.32;;;5.50;99.90;;;;;;4976108;28;20282;-75
2022/12/06 07:26:10;;;;;;;16.92;10.50;;;5.50;99.90;;;;;;4959971;28;20179;-76
2022/12/06 07:28:45;;;;;;;18.58;10.85;;;5.60;99.90;;;;;;4993187;28;20186;-76
2022/12/06 07:31:16;;;;;;;14.25;9.23;;;5.60;99.90;;;;;;4992894;28;20621;-76
2022/12/06 07:33:43;;;;;;;16.85;10.30;;;5.60;99.90;;;;;;4959635;28;20207;-76
2022/12/06 07:36:10;;;;;;;17.40;10.95;;;5.50;99.90;;;;;;4958976;28;20233;-76
2022/12/06 07:38:39;;;;;;;15.10;9.05;;;5.60;99.90;;;;;;4959974;28;20672;-76
2022/12/06 07:46:43;;;;;;;13.02;8.65;;;5.60;99.90;;;;;;4959495;28;20290;-76
2022/12/06 07:49:17;;;;;;;15.48;9.88;;;5.50;99.90;;;;;;4975046;28;20202;-76
2022/12/06 07:51:44;;;;;;;17.88;10.30;;;5.60;99.90;;;;;;4959843;28;20235;-76
2022/12/06 07:54:16;;;;;;;15.15;10.45;;;5.60;99.90;;;;;;4976071;28;20680;-76
2022/12/06 07:56:45;;;;;;;14.70;9.25;;;5.60;99.90;;;;;;4975497;28;20585;-76
2022/12/06 07:59:11;;;;;;;15.25;10.45;;;5.60;99.90;;;;;;4943164;28;20214;-75
2022/12/06 08:01:37;;;;;;;13.37;9.50;;;5.60;99.90;;;;;;4975583;28;20218;-76
2022/12/06 08:04:04;;;;;;;13.73;9.40;;;5.60;99.90;;;;;;4959585;28;20476;-76
2022/12/06 08:06:33;;;;;;;17.47;11.23;;;5.60;99.90;;;;;;4959046;28;20988;-76
2022/12/06 08:09:02;;;;;;;13.95;10.02;;;5.60;99.90;;;;;;4958822;28;20939;-76
2022/12/06 08:11:33;;;;;;;13.70;9.50;;;5.60;99.90;;;;;;4958132;28;20208;-75
2022/12/06 08:14:01;;;;;;;14.45;10.55;;;5.60;99.90;;;;;;4974961;28;20493;-76
2022/12/06 08:16:29;;;;;;;13.43;9.18;;;5.60;99.90;;;;;;4959591;28;20556;-76
2022/12/06 08:18:57;;;;;;;13.27;9.30;;;5.60;99.90;;;;;;4975425;28;20216;-76
2022/12/06 08:21:35;;;;;;;16.75;9.80;;;5.60;99.90;;;;;;4975952;28;20885;-76
2022/12/06 08:24:02;;;;;;;14.97;10.27;;;5.60;99.90;;;;;;4959170;28;20238;-76
2022/12/06 08:26:29;;;;;;;15.80;9.60;;;5.60;99.90;;;;;;4975207;28;20757;-76
2022/12/06 08:28:55;;;;;;;13.10;9.85;;;5.60;99.90;;;;;;4975079;28;20450;-76
2022/12/06 08:31:24;;;;;;;15.97;10.00;;;5.70;99.90;;;;;;4958720;28;20678;-76
2022/12/06 08:33:52;;;;;;;14.43;10.15;;;5.60;99.90;;;;;;4959515;28;20521;-76
2022/12/06 08:36:23;;;;;;;20.90;9.67;;;5.60;99.90;;;;;;4975316;28;20273;-76
2022/12/06 08:38:50;;;;;;;16.63;9.90;;;5.60;99.90;;;;;;4958734;28;20987;-76
2022/12/06 08:44:03;;;;;;;14.37;9.40;;;5.70;99.90;;;;;;4975070;28;20180;-76
2022/12/06 08:46:31;;;;;;;13.90;10.07;;;5.60;99.90;;;;;;4992077;28;20415;-76
2022/12/06 08:49:04;;;;;;;14.40;8.73;;;5.70;99.90;;;;;;4992169;28;20183;-75
2022/12/06 08:51:34;;;;;;;16.10;10.33;;;5.60;99.90;;;;;;4959192;28;20203;-76
2022/12/06 08:54:02;;;;;;;11.85;9.10;;;5.70;99.90;;;;;;4975365;28;20452;-76
2022/12/06 08:56:34;;;;;;;12.40;8.90;;;5.70;99.90;;;;;;4958979;28;20191;-76
2022/12/06 08:59:01;;;;;;;13.90;9.30;;;5.70;99.90;;;;;;4958715;28;20176;-76
2022/12/06 09:01:32;;;;;;;16.00;9.95;;;5.70;99.90;;;;;;4974565;28;20871;-75
2022/12/06 09:03:59;;;;;;;12.13;8.80;;;5.70;99.90;;;;;;4974987;28;20174;-76
2022/12/06 09:06:30;;;;;;;12.53;8.70;;;5.70;99.90;;;;;;4958763;28;20924;-76
2022/12/06 09:08:58;;;;;;;15.95;10.32;;;5.70;99.90;;;;;;4975074;28;20551;-76
2022/12/06 09:11:27;;;;;;;13.80;8.70;;;5.70;99.90;;;;;;4955496;28;20631;-76
2022/12/06 09:13:55;;;;;;;11.43;7.68;;;5.70;99.90;;;;;;4972149;28;20447;-75
2022/12/06 09:16:23;;;;;;;11.60;8.73;;;5.70;99.90;;;;;;4961334;28;20228;-76
2022/12/06 09:18:52;;;;;;;12.50;9.03;;;5.70;99.90;;;;;;4959789;28;20211;-76
2022/12/06 09:21:21;;;;;;;11.73;8.30;;;5.70;99.90;;;;;;4995630;28;20434;-76
2022/12/06 09:23:49;;;;;;;14.95;9.20;;;5.70;99.90;;;;;;4962481;28;20190;-76
2022/12/06 09:26:18;;;;;;;12.65;8.40;;;5.70;99.90;;;;;;4978217;28;20284;-75
2022/12/06 09:28:48;;;;;;;15.63;8.37;;;5.70;99.90;;;;;;4978188;28;20170;-75
2022/12/06 09:31:14;;;;;;;11.15;7.57;;;5.70;99.90;;;;;;4978074;28;20819;-76
2022/12/06 09:33:42;;;;;;;11.80;8.20;;;5.70;99.90;;;;;;4978169;28;20175;-76
2022/12/06 09:36:29;;;;;;;11.63;8.13;;;5.70;99.90;;;;;;4978036;28;20477;-75
2022/12/06 09:39:21;;;;;;;9.70;7.85;;;5.70;99.90;;;;;;4961619;28;20212;-75
2022/12/06 09:42:00;;;;;;;11.48;8.23;;;5.80;99.90;;;;;;4995562;28;20194;-75
2022/12/06 09:44:55;;;;;;;12.07;8.10;;;5.70;99.90;;;;;;4958004;28;20191;-74
2022/12/06 09:48:15;;;;;;;10.75;8.10;;;5.80;99.90;;;;;;4974559;28;20538;-75
2022/12/06 09:51:05;;;;;;;12.57;8.20;;;5.80;99.90;;;;;;4974981;28;20213;-75
2022/12/06 09:53:56;;;;;;;13.10;8.10;;;5.70;99.90;;;;;;4957950;28;20282;-75
2022/12/06 09:56:39;;;;;;;12.75;7.90;;;5.70;99.90;;;;;;4958609;28;20242;-75
2022/12/06 09:59:21;;;;;;;10.70;7.38;;;5.70;99.90;;;;;;4958362;28;20207;-75
2022/12/06 10:02:08;;;;;;;11.18;7.63;;;5.80;99.90;;;;;;4958079;28;20203;-74
2022/12/06 10:05:24;;;;;;;11.82;8.35;;;5.80;99.90;;;;;;4958453;28;20293;-75
2022/12/06 10:08:33;;;;;;;10.55;8.38;;;5.80;99.90;;;;;;4933385;29;20203;-75
2022/12/06 10:11:26;;;;;;;9.90;7.65;;;5.80;99.90;;;;;;4918854;29;20213;-75
2022/12/06 10:14:07;;;;;;;9.32;7.25;;;5.80;99.90;;;;;;4918718;29;20698;-75
2022/12/06 10:16:52;;;;;;;10.32;7.22;;;5.80;99.90;;;;;;4934077;29;20271;-74
2022/12/06 10:19:31;;;;;;;10.05;7.68;;;5.80;99.90;;;;;;4969415;28;20209;-75
2022/12/06 10:22:18;;;;;;;8.77;6.93;;;5.80;99.90;;;;;;4953558;29;20372;-75
2022/12/06 10:25:18;;;;;;;8.85;6.63;;;5.80;99.90;;;;;;4953305;29;20165;-74
2022/12/06 10:27:59;;;;;;;9.32;7.10;;;5.80;99.90;;;;;;4953244;29;20290;-75
2022/12/06 10:30:25;;;;;;;9.57;6.60;;;5.80;99.90;;;;;;4920923;29;20184;-74
2022/12/06 10:33:04;;;;;;;8.90;6.88;;;5.80;99.90;;;;;;4953475;29;20201;-75
2022/12/06 10:35:52;;;;;;;9.85;6.18;;;5.80;99.90;;;;;;4937396;29;20208;-75
2022/12/06 10:38:54;;;;;;;9.68;6.78;;;5.80;99.90;;;;;;4971511;28;20236;-75
2022/12/06 10:41:42;;;;;;;7.82;6.28;;;5.90;99.90;;;;;;4981498;28;20232;-74
2022/12/06 10:44:31;;;;;;;6.95;5.85;;;5.80;99.90;;;;;;4976974;28;20164;-75
2022/12/06 10:47:06;;;;;;;7.22;5.63;;;5.80;99.90;;;;;;4994334;28;20252;-74
2022/12/06 10:49:59;;;;;;;11.18;6.30;;;5.80;99.90;;;;;;4960796;28;20215;-75
2022/12/06 10:52:40;;;;;;;8.00;5.80;;;5.80;99.90;;;;;;4983331;28;20219;-75
2022/12/06 10:55:09;;;;;;;7.55;6.38;;;5.90;99.90;;;;;;4960843;28;20219;-75
2022/12/06 10:57:52;;;;;;;7.22;5.50;;;5.90;99.90;;;;;;4977017;28;20364;-75
2022/12/06 11:00:26;;;;;;;14.45;6.20;;;5.90;99.90;;;;;;4976344;28;20194;-75
2022/12/06 11:03:13;;;;;;;7.50;6.00;;;5.90;99.90;;;;;;4944422;28;20672;-75
2022/12/06 11:05:58;;;;;;;6.30;5.10;;;5.90;99.90;;;;;;4944623;28;20218;-75
2022/12/06 11:08:34;;;;;;;7.65;6.50;;;5.90;99.90;;;;;;4976339;28;20172;-74
2022/12/06 11:11:04;;;;;;;7.97;5.55;;;5.90;99.90;;;;;;4976330;28;20214;-75
2022/12/06 11:13:36;;;;;;;8.07;5.70;;;5.90;99.90;;;;;;4959095;28;20280;-75
2022/12/06 11:16:15;;;;;;;8.77;6.00;;;5.90;99.90;;;;;;4976166;28;20654;-75
2022/12/06 11:18:42;;;;;;;7.80;5.45;;;5.90;99.90;;;;;;4975960;28;20357;-74
2022/12/06 11:21:19;;;;;;;7.95;5.53;;;5.90;99.90;;;;;;4993225;28;20261;-74
2022/12/06 11:24:00;;;;;;;6.25;5.35;;;6.00;99.90;;;;;;4960102;28;20207;-74
2022/12/06 11:26:45;;;;;;;9.35;5.47;;;6.00;99.90;;;;;;4976051;28;20645;-75
2022/12/06 11:29:13;;;;;;;7.20;5.18;;;6.00;99.90;;;;;;4959822;28;20217;-74
2022/12/06 11:31:47;;;;;;;11.18;5.45;;;6.00;99.90;;;;;;4943965;28;20203;-75
2022/12/06 11:34:26;;;;;;;5.45;4.85;;;6.00;99.90;;;;;;4976086;28;20191;-75
2022/12/06 11:36:53;;;;;;;6.45;4.60;;;6.00;99.90;;;;;;4959648;28;20274;-75
2022/12/06 11:39:20;;;;;;;7.85;5.50;;;6.00;99.90;;;;;;4943937;28;20175;-75
2022/12/06 11:41:51;;;;;;;5.65;4.40;;;6.00;99.90;;;;;;4975878;28;20554;-75
2022/12/06 11:44:24;;;;;;;7.35;5.43;;;6.00;99.90;;;;;;4975425;28;20198;-75
2022/12/06 11:46:57;;;;;;;5.35;4.35;;;6.00;99.90;;;;;;4993019;28;20227;-75
2022/12/06 11:49:33;;;;;;;7.10;4.43;;;6.00;99.90;;;;;;4959570;28;20243;-74
2022/12/06 11:52:20;;;;;;;5.55;4.50;;;6.10;99.90;;;;;;4959732;28;20208;-75
2022/12/06 11:54:59;;;;;;;4.88;4.38;;;6.10;99.90;;;;;;4943568;28;20190;-75
2022/12/06 11:57:34;;;;;;;7.25;4.68;;;6.10;99.90;;;;;;4975284;28;20693;-75
2022/12/06 12:00:22;;;;;;;4.88;3.95;;;6.10;99.90;;;;;;4992762;28;20175;-75
2022/12/06 12:02:50;;;;;;;6.45;4.55;;;6.10;99.90;;;;;;4959722;28;20573;-74
2022/12/06 12:05:24;;;;;;;5.03;3.92;;;6.10;99.90;;;;;;4975241;28;20168;-75
2022/12/06 12:07:59;;;;;;;6.00;4.47;;;6.10;99.90;;;;;;4943882;28;20700;-75
2022/12/06 12:10:34;;;;;;;6.85;4.85;;;6.10;99.90;;;;;;4975391;28;20443;-75
2022/12/06 12:16:21;;;;;;;5.55;3.97;;;6.10;99.90;;;;;;4959140;28;20176;-75
2022/12/06 12:19:03;;;;;;;5.93;4.17;;;6.10;99.90;;;;;;4975142;28;20211;-75
2022/12/06 12:21:37;;;;;;;4.32;3.92;;;6.20;99.90;;;;;;4992457;28;20451;-74
2022/12/06 12:24:09;;;;;;;5.93;4.35;;;6.20;99.90;;;;;;4959270;28;20179;-75
2022/12/06 12:26:42;;;;;;;5.13;4.35;;;6.20;99.90;;;;;;4959345;28;20175;-75
2022/12/06 12:29:20;;;;;;;4.47;3.90;;;6.20;99.90;;;;;;4958949;28;20264;-75
2022/12/06 12:31:58;;;;;;;5.70;3.90;;;6.20;99.90;;;;;;4958943;28;20345;-75
2022/12/06 12:34:29;;;;;;;5.82;3.85;;;6.20;99.90;;;;;;4974758;28;20447;-75
2022/12/06 12:36:59;;;;;;;5.05;4.00;;;6.20;99.90;;;;;;4975011;28;20202;-75
2022/12/06 12:39:43;;;;;;;5.60;3.83;;;6.20;99.90;;;;;;4958888;28;20584;-75
2022/12/06 12:42:32;;;;;;;5.70;3.67;;;6.20;99.90;;;;;;4991958;28;20197;-75
2022/12/06 12:45:01;;;;;;;5.55;3.50;;;6.30;99.90;;;;;;4992390;28;20871;-75
2022/12/06 12:47:28;;;;;;;4.60;3.88;;;6.20;99.90;;;;;;4974893;28;20655;-74
2022/12/06 12:50:22;;;;;;;5.30;4.13;;;6.30;99.90;;;;;;4992064;28;20211;-75
2022/12/06 12:52:49;;;;;;;4.50;3.97;;;6.30;99.90;;;;;;4974787;28;20815;-74
2022/12/06 12:55:25;;;;;;;6.07;3.73;;;6.30;99.90;;;;;;4978483;28;20420;-74
2022/12/06 12:57:57;;;;;;;5.57;3.80;;;6.30;99.90;;;;;;4978904;28;20497;-75
2022/12/06 13:00:40;;;;;;;4.70;3.63;;;6.30;99.90;;;;;;4978555;28;20419;-75
2022/12/06 13:03:14;;;;;;;4.10;3.15;;;6.30;99.90;;;;;;4995976;28;20169;-74
2022/12/06 13:05:42;;;;;;;6.13;3.50;;;6.30;99.90;;;;;;4978849;28;20207;-75
2022/12/06 13:08:17;;;;;;;3.50;3.20;;;6.30;99.90;;;;;;4947401;28;20438;-74
2022/12/06 13:10:48;;;;;;;4.47;3.33;;;6.30;99.90;;;;;;4962334;28;20970;-75
2022/12/06 13:13:33;;;;;;;4.00;3.30;;;6.40;99.90;;;;;;4962613;28;20435;-74
2022/12/06 13:16:04;;;;;;;3.80;3.40;;;6.40;99.90;;;;;;4962182;28;21022;-75
2022/12/06 13:18:47;;;;;;;5.70;3.15;;;6.40;99.90;;;;;;4978486;28;21016;-74
2022/12/06 13:21:41;;;;;;;3.70;3.40;;;6.40;99.90;;;;;;4964734;28;20712;-74
2022/12/06 13:24:09;;;;;;;4.65;3.40;;;6.40;99.90;;;;;;4962449;28;20171;-75
2022/12/06 13:27:06;;;;;;;4.77;3.83;;;6.40;99.90;;;;;;4978319;28;20701;-75
2022/12/06 13:29:47;;;;;;;6.00;3.20;;;6.40;99.90;;;;;;4970323;28;20445;-75
2022/12/06 13:32:21;;;;;;;3.97;3.30;;;6.40;99.90;;;;;;4994022;28;20443;-75
2022/12/06 13:34:52;;;;;;;3.77;3.23;;;6.40;99.90;;;;;;4962331;28;21004;-75
2022/12/06 13:37:42;;;;;;;7.00;3.50;;;6.40;99.90;;;;;;4977946;28;20548;-75
2022/12/06 13:40:46;;;;;;;5.40;3.30;;;6.50;99.90;;;;;;4962290;28;20196;-75
2022/12/06 13:43:25;;;;;;;4.40;2.92;;;6.50;99.90;;;;;;4928810;28;20202;-75
2022/12/06 13:46:11;;;;;;;6.22;3.80;;;6.50;99.90;;;;;;4962266;28;20267;-75
2022/12/06 13:48:57;;;;;;;6.15;3.53;;;6.50;99.90;;;;;;4961955;28;20653;-74
2022/12/06 13:51:31;;;;;;;4.43;3.53;;;6.50;99.90;;;;;;4961798;28;20227;-75